sensor_id;sensor_type;location;lat;lon;timestamp;P1;durP1;ratioP1;P2;durP2;ratioP2
78664;SDS011;67981;51.022;-2.870;2024-01-30T00:01:07;4.15;;;2.20;;
78664;SDS011;67981;51.022;-2.870;2024-01-30T00:03:32;7.93;;;4.20;;
78664;SDS011;67981;51.022;-2.870;2024-01-30T00:05:57;4.60;;;2.40;;
78664;SDS011;67981;51.022;-2.870;2024-01-30T00:08:23;4.95;;;2.38;;
78664;SDS011;67981;51.022;-2.870;2024-01-30T00:10:48;4.82;;;2.60;;
78664;SDS011;67981;51.022;-2.870;2024-01-30T00:13:14;5.75;;;2.20;;
78664;SDS011;67981;51.022;-2.870;2024-01-30T00:15:41;3.88;;;2.22;;
78664;SDS011;67981;51.022;-2.870;2024-01-30T00:18:06;2.75;;;1.75;;
78664;SDS011;67981;51.022;-2.870;2024-01-30T00:20:32;4.40;;;1.80;;
78664;SDS011;67981;51.022;-2.870;2024-01-30T00:22:57;4.30;;;1.92;;
78664;SDS011;67981;51.022;-2.870;2024-01-30T00:25:22;1.58;;;1.02;;
78664;SDS011;67981;51.022;-2.870;2024-01-30T00:27:48;0.82;;;0.80;;
78664;SDS011;67981;51.022;-2.870;2024-01-30T00:30:13;1.55;;;0.80;;
78664;SDS011;67981;51.022;-2.870;2024-01-30T00:32:39;1.10;;;0.82;;
78664;SDS011;67981;51.022;-2.870;2024-01-30T00:35:04;1.20;;;0.82;;
78664;SDS011;67981;51.022;-2.870;2024-01-30T00:37:30;1.50;;;1.20;;
78664;SDS011;67981;51.022;-2.870;2024-01-30T00:39:56;1.15;;;0.90;;
78664;SDS011;67981;51.022;-2.870;2024-01-30T00:42:22;0.60;;;0.45;;
78664;SDS011;67981;51.022;-2.870;2024-01-30T00:44:49;0.98;;;0.70;;
78664;SDS011;67981;51.022;-2.870;2024-01-30T00:47:14;1.92;;;0.60;;
78664;SDS011;67981;51.022;-2.870;2024-01-30T00:49:40;0.43;;;0.40;;
78664;SDS011;67981;51.022;-2.870;2024-01-30T00:52:05;0.60;;;0.60;;
78664;SDS011;67981;51.022;-2.870;2024-01-30T00:54:31;0.70;;;0.70;;
78664;SDS011;67981;51.022;-2.870;2024-01-30T00:56:57;0.40;;;0.40;;
78664;SDS011;67981;51.022;-2.870;2024-01-30T00:59:22;1.75;;;0.52;;
78664;SDS011;67981;51.022;-2.870;2024-01-30T01:01:47;0.47;;;0.47;;
78664;SDS011;67981;51.022;-2.870;2024-01-30T01:04:27;0.40;;;0.40;;
78664;SDS011;67981;51.022;-2.870;2024-01-30T01:06:53;0.50;;;0.50;;
78664;SDS011;67981;51.022;-2.870;2024-01-30T01:09:18;0.73;;;0.60;;
78664;SDS011;67981;51.022;-2.870;2024-01-30T01:11:43;0.43;;;0.43;;
78664;SDS011;67981;51.022;-2.870;2024-01-30T01:14:09;0.77;;;0.55;;
78664;SDS011;67981;51.022;-2.870;2024-01-30T01:16:34;0.73;;;0.70;;
78664;SDS011;67981;51.022;-2.870;2024-01-30T01:19:00;1.60;;;1.00;;
78664;SDS011;67981;51.022;-2.870;2024-01-30T01:21:25;0.75;;;0.65;;
78664;SDS011;67981;51.022;-2.870;2024-01-30T01:23:51;0.40;;;0.40;;
78664;SDS011;67981;51.022;-2.870;2024-01-30T01:26:16;0.80;;;0.80;;
78664;SDS011;67981;51.022;-2.870;2024-01-30T01:28:42;1.02;;;0.70;;
78664;SDS011;67981;51.022;-2.870;2024-01-30T01:31:07;1.13;;;0.60;;
78664;SDS011;67981;51.022;-2.870;2024-01-30T01:33:33;1.20;;;0.70;;
78664;SDS011;67981;51.022;-2.870;2024-01-30T01:35:59;1.35;;;0.75;;
78664;SDS011;67981;51.022;-2.870;2024-01-30T01:38:27;3.28;;;0.98;;
78664;SDS011;67981;51.022;-2.870;2024-01-30T01:40:53;3.10;;;0.75;;
78664;SDS011;67981;51.022;-2.870;2024-01-30T01:43:18;2.72;;;0.80;;
78664;SDS011;67981;51.022;-2.870;2024-01-30T01:45:44;2.53;;;1.13;;
78664;SDS011;67981;51.022;-2.870;2024-01-30T01:48:10;1.20;;;0.80;;
78664;SDS011;67981;51.022;-2.870;2024-01-30T01:50:37;2.75;;;0.80;;
78664;SDS011;67981;51.022;-2.870;2024-01-30T01:53:03;4.70;;;1.38;;
78664;SDS011;67981;51.022;-2.870;2024-01-30T01:55:30;4.70;;;1.08;;
78664;SDS011;67981;51.022;-2.870;2024-01-30T01:57:57;1.13;;;0.93;;
78664;SDS011;67981;51.022;-2.870;2024-01-30T02:00:22;0.88;;;0.55;;
78664;SDS011;67981;51.022;-2.870;2024-01-30T02:02:48;1.55;;;0.93;;
78664;SDS011;67981;51.022;-2.870;2024-01-30T02:05:15;1.70;;;1.15;;
78664;SDS011;67981;51.022;-2.870;2024-01-30T02:07:40;1.52;;;0.43;;
78664;SDS011;67981;51.022;-2.870;2024-01-30T02:10:07;1.20;;;0.80;;
78664;SDS011;67981;51.022;-2.870;2024-01-30T02:12:34;6.45;;;1.38;;
78664;SDS011;67981;51.022;-2.870;2024-01-30T02:14:59;1.88;;;1.05;;
78664;SDS011;67981;51.022;-2.870;2024-01-30T02:17:25;6.25;;;1.25;;
78664;SDS011;67981;51.022;-2.870;2024-01-30T02:19:50;1.98;;;0.95;;
78664;SDS011;67981;51.022;-2.870;2024-01-30T02:22:16;2.60;;;0.68;;
78664;SDS011;67981;51.022;-2.870;2024-01-30T02:24:43;2.55;;;0.70;;
78664;SDS011;67981;51.022;-2.870;2024-01-30T02:27:08;2.65;;;1.30;;
78664;SDS011;67981;51.022;-2.870;2024-01-30T02:29:34;1.52;;;0.80;;
78664;SDS011;67981;51.022;-2.870;2024-01-30T02:31:59;1.75;;;0.80;;
78664;SDS011;67981;51.022;-2.870;2024-01-30T02:34:24;2.80;;;0.90;;
78664;SDS011;67981;51.022;-2.870;2024-01-30T02:36:50;1.55;;;0.88;;
78664;SDS011;67981;51.022;-2.870;2024-01-30T02:39:15;2.75;;;0.85;;
78664;SDS011;67981;51.022;-2.870;2024-01-30T02:41:40;1.92;;;0.80;;
78664;SDS011;67981;51.022;-2.870;2024-01-30T02:44:06;4.38;;;1.88;;
78664;SDS011;67981;51.022;-2.870;2024-01-30T02:46:31;2.88;;;0.30;;
78664;SDS011;67981;51.022;-2.870;2024-01-30T02:48:57;3.20;;;0.88;;
78664;SDS011;67981;51.022;-2.870;2024-01-30T02:51:22;2.05;;;0.70;;
78664;SDS011;67981;51.022;-2.870;2024-01-30T02:53:47;3.50;;;1.08;;
78664;SDS011;67981;51.022;-2.870;2024-01-30T02:56:13;0.90;;;0.70;;
78664;SDS011;67981;51.022;-2.870;2024-01-30T02:58:39;2.95;;;1.10;;
78664;SDS011;67981;51.022;-2.870;2024-01-30T03:01:05;2.00;;;1.00;;
78664;SDS011;67981;51.022;-2.870;2024-01-30T03:03:31;3.85;;;1.25;;
78664;SDS011;67981;51.022;-2.870;2024-01-30T03:05:56;3.92;;;1.55;;
78664;SDS011;67981;51.022;-2.870;2024-01-30T03:08:22;2.95;;;1.15;;
78664;SDS011;67981;51.022;-2.870;2024-01-30T03:10:47;1.55;;;0.75;;
78664;SDS011;67981;51.022;-2.870;2024-01-30T03:13:13;1.02;;;0.70;;
78664;SDS011;67981;51.022;-2.870;2024-01-30T03:15:38;1.73;;;1.08;;
78664;SDS011;67981;51.022;-2.870;2024-01-30T03:18:03;2.65;;;0.98;;
78664;SDS011;67981;51.022;-2.870;2024-01-30T03:20:29;1.55;;;0.90;;
78664;SDS011;67981;51.022;-2.870;2024-01-30T03:22:55;1.33;;;0.85;;
78664;SDS011;67981;51.022;-2.870;2024-01-30T03:25:21;3.40;;;0.90;;
78664;SDS011;67981;51.022;-2.870;2024-01-30T03:27:46;2.15;;;0.93;;
78664;SDS011;67981;51.022;-2.870;2024-01-30T03:30:12;3.20;;;0.80;;
78664;SDS011;67981;51.022;-2.870;2024-01-30T03:32:37;2.33;;;0.88;;
78664;SDS011;67981;51.022;-2.870;2024-01-30T03:35:03;3.42;;;1.10;;
78664;SDS011;67981;51.022;-2.870;2024-01-30T03:37:29;2.80;;;0.80;;
78664;SDS011;67981;51.022;-2.870;2024-01-30T03:39:54;3.95;;;1.35;;
78664;SDS011;67981;51.022;-2.870;2024-01-30T03:42:20;9.60;;;1.55;;
78664;SDS011;67981;51.022;-2.870;2024-01-30T03:44:45;6.10;;;1.20;;
78664;SDS011;67981;51.022;-2.870;2024-01-30T03:47:11;1.92;;;1.23;;
78664;SDS011;67981;51.022;-2.870;2024-01-30T03:49:36;3.60;;;1.25;;
78664;SDS011;67981;51.022;-2.870;2024-01-30T03:52:02;6.70;;;1.17;;
78664;SDS011;67981;51.022;-2.870;2024-01-30T03:54:27;2.50;;;1.42;;
78664;SDS011;67981;51.022;-2.870;2024-01-30T03:56:53;3.83;;;1.40;;
78664;SDS011;67981;51.022;-2.870;2024-01-30T03:59:19;3.00;;;1.48;;
78664;SDS011;67981;51.022;-2.870;2024-01-30T04:01:49;3.90;;;1.30;;
78664;SDS011;67981;51.022;-2.870;2024-01-30T04:06:43;4.80;;;1.10;;
78664;SDS011;67981;51.022;-2.870;2024-01-30T04:09:09;3.33;;;1.40;;
78664;SDS011;67981;51.022;-2.870;2024-01-30T04:11:34;3.80;;;1.23;;
78664;SDS011;67981;51.022;-2.870;2024-01-30T04:14:00;3.33;;;1.35;;
78664;SDS011;67981;51.022;-2.870;2024-01-30T04:16:25;5.82;;;1.67;;
78664;SDS011;67981;51.022;-2.870;2024-01-30T04:18:51;3.13;;;1.48;;
78664;SDS011;67981;51.022;-2.870;2024-01-30T04:21:17;3.63;;;1.83;;
78664;SDS011;67981;51.022;-2.870;2024-01-30T04:23:43;3.67;;;1.92;;
78664;SDS011;67981;51.022;-2.870;2024-01-30T04:26:08;3.45;;;1.27;;
78664;SDS011;67981;51.022;-2.870;2024-01-30T04:28:34;4.20;;;1.83;;
78664;SDS011;67981;51.022;-2.870;2024-01-30T04:30:59;2.88;;;1.27;;
78664;SDS011;67981;51.022;-2.870;2024-01-30T04:33:24;3.58;;;1.27;;
78664;SDS011;67981;51.022;-2.870;2024-01-30T04:35:50;7.30;;;1.83;;
78664;SDS011;67981;51.022;-2.870;2024-01-30T04:38:16;3.90;;;1.85;;
78664;SDS011;67981;51.022;-2.870;2024-01-30T04:40:42;6.70;;;2.13;;
78664;SDS011;67981;51.022;-2.870;2024-01-30T04:43:07;5.50;;;2.08;;
78664;SDS011;67981;51.022;-2.870;2024-01-30T04:45:33;1.80;;;1.35;;
78664;SDS011;67981;51.022;-2.870;2024-01-30T04:47:58;7.53;;;2.88;;
78664;SDS011;67981;51.022;-2.870;2024-01-30T04:50:23;7.13;;;2.30;;
78664;SDS011;67981;51.022;-2.870;2024-01-30T04:52:49;6.68;;;1.90;;
78664;SDS011;67981;51.022;-2.870;2024-01-30T04:55:14;6.68;;;1.88;;
78664;SDS011;67981;51.022;-2.870;2024-01-30T04:57:40;4.25;;;2.50;;
78664;SDS011;67981;51.022;-2.870;2024-01-30T05:00:05;6.57;;;2.00;;
78664;SDS011;67981;51.022;-2.870;2024-01-30T05:02:31;5.90;;;2.40;;
78664;SDS011;67981;51.022;-2.870;2024-01-30T05:04:57;5.80;;;2.40;;
78664;SDS011;67981;51.022;-2.870;2024-01-30T05:07:24;11.48;;;2.60;;
78664;SDS011;67981;51.022;-2.870;2024-01-30T05:09:50;15.80;;;3.53;;
78664;SDS011;67981;51.022;-2.870;2024-01-30T05:12:15;7.57;;;3.20;;
78664;SDS011;67981;51.022;-2.870;2024-01-30T05:14:40;9.15;;;3.05;;
78664;SDS011;67981;51.022;-2.870;2024-01-30T05:17:06;5.43;;;3.42;;
78664;SDS011;67981;51.022;-2.870;2024-01-30T05:19:32;11.38;;;4.20;;
78664;SDS011;67981;51.022;-2.870;2024-01-30T05:21:58;12.75;;;4.03;;
78664;SDS011;67981;51.022;-2.870;2024-01-30T05:24:23;10.90;;;3.97;;
78664;SDS011;67981;51.022;-2.870;2024-01-30T05:26:49;8.02;;;3.55;;
78664;SDS011;67981;51.022;-2.870;2024-01-30T05:29:16;9.30;;;3.38;;
78664;SDS011;67981;51.022;-2.870;2024-01-30T05:31:41;8.32;;;4.65;;
78664;SDS011;67981;51.022;-2.870;2024-01-30T05:34:06;12.77;;;4.50;;
78664;SDS011;67981;51.022;-2.870;2024-01-30T05:36:33;14.30;;;5.35;;
78664;SDS011;67981;51.022;-2.870;2024-01-30T05:38:58;9.38;;;5.38;;
78664;SDS011;67981;51.022;-2.870;2024-01-30T05:41:24;15.07;;;4.45;;
78664;SDS011;67981;51.022;-2.870;2024-01-30T05:43:49;9.32;;;3.50;;
78664;SDS011;67981;51.022;-2.870;2024-01-30T05:46:15;14.18;;;5.07;;
78664;SDS011;67981;51.022;-2.870;2024-01-30T05:48:40;19.40;;;5.68;;
78664;SDS011;67981;51.022;-2.870;2024-01-30T05:51:06;9.38;;;4.13;;
78664;SDS011;67981;51.022;-2.870;2024-01-30T05:53:33;10.90;;;5.15;;
78664;SDS011;67981;51.022;-2.870;2024-01-30T05:55:59;6.63;;;2.72;;
78664;SDS011;67981;51.022;-2.870;2024-01-30T05:58:26;7.78;;;3.67;;
78664;SDS011;67981;51.022;-2.870;2024-01-30T06:00:51;13.90;;;3.78;;
78664;SDS011;67981;51.022;-2.870;2024-01-30T06:03:17;13.93;;;3.95;;
78664;SDS011;67981;51.022;-2.870;2024-01-30T06:05:42;9.02;;;3.17;;
78664;SDS011;67981;51.022;-2.870;2024-01-30T06:08:09;8.50;;;3.55;;
78664;SDS011;67981;51.022;-2.870;2024-01-30T06:10:34;11.45;;;3.20;;
78664;SDS011;67981;51.022;-2.870;2024-01-30T06:12:59;9.10;;;4.13;;
78664;SDS011;67981;51.022;-2.870;2024-01-30T06:15:25;12.82;;;3.78;;
78664;SDS011;67981;51.022;-2.870;2024-01-30T06:17:51;9.15;;;3.10;;
78664;SDS011;67981;51.022;-2.870;2024-01-30T06:20:16;8.02;;;3.67;;
78664;SDS011;67981;51.022;-2.870;2024-01-30T06:22:42;7.35;;;3.55;;
78664;SDS011;67981;51.022;-2.870;2024-01-30T06:25:08;8.15;;;2.90;;
78664;SDS011;67981;51.022;-2.870;2024-01-30T06:27:33;4.78;;;2.97;;
78664;SDS011;67981;51.022;-2.870;2024-01-30T06:29:58;6.70;;;2.85;;
78664;SDS011;67981;51.022;-2.870;2024-01-30T06:32:24;7.82;;;3.45;;
78664;SDS011;67981;51.022;-2.870;2024-01-30T06:34:49;6.78;;;2.92;;
78664;SDS011;67981;51.022;-2.870;2024-01-30T06:37:15;4.53;;;2.65;;
78664;SDS011;67981;51.022;-2.870;2024-01-30T06:39:40;8.48;;;3.15;;
78664;SDS011;67981;51.022;-2.870;2024-01-30T06:42:05;9.80;;;2.80;;
78664;SDS011;67981;51.022;-2.870;2024-01-30T06:44:31;3.55;;;2.38;;
78664;SDS011;67981;51.022;-2.870;2024-01-30T06:46:56;6.32;;;1.90;;
78664;SDS011;67981;51.022;-2.870;2024-01-30T06:49:22;23.67;;;3.75;;
78664;SDS011;67981;51.022;-2.870;2024-01-30T06:51:47;11.52;;;2.58;;
78664;SDS011;67981;51.022;-2.870;2024-01-30T06:54:12;4.88;;;1.90;;
78664;SDS011;67981;51.022;-2.870;2024-01-30T06:56:38;6.20;;;2.47;;
78664;SDS011;67981;51.022;-2.870;2024-01-30T06:59:04;10.15;;;2.80;;
78664;SDS011;67981;51.022;-2.870;2024-01-30T07:01:30;8.45;;;3.30;;
78664;SDS011;67981;51.022;-2.870;2024-01-30T07:03:56;4.97;;;2.53;;
78664;SDS011;67981;51.022;-2.870;2024-01-30T07:06:22;8.77;;;2.88;;
78664;SDS011;67981;51.022;-2.870;2024-01-30T07:08:48;11.45;;;2.88;;
78664;SDS011;67981;51.022;-2.870;2024-01-30T07:11:20;5.82;;;2.83;;
78664;SDS011;67981;51.022;-2.870;2024-01-30T07:13:52;7.05;;;2.58;;
78664;SDS011;67981;51.022;-2.870;2024-01-30T07:16:18;4.57;;;1.92;;
78664;SDS011;67981;51.022;-2.870;2024-01-30T07:18:43;6.43;;;2.45;;
78664;SDS011;67981;51.022;-2.870;2024-01-30T07:21:09;3.33;;;2.25;;
78664;SDS011;67981;51.022;-2.870;2024-01-30T07:23:35;2.88;;;1.88;;
78664;SDS011;67981;51.022;-2.870;2024-01-30T07:26:04;4.75;;;2.03;;
78664;SDS011;67981;51.022;-2.870;2024-01-30T07:28:33;7.40;;;2.53;;
78664;SDS011;67981;51.022;-2.870;2024-01-30T07:30:59;6.82;;;2.55;;
78664;SDS011;67981;51.022;-2.870;2024-01-30T07:33:25;4.53;;;2.22;;
78664;SDS011;67981;51.022;-2.870;2024-01-30T07:35:52;7.22;;;2.83;;
78664;SDS011;67981;51.022;-2.870;2024-01-30T07:38:17;10.52;;;3.33;;
78664;SDS011;67981;51.022;-2.870;2024-01-30T07:40:43;11.07;;;3.38;;
78664;SDS011;67981;51.022;-2.870;2024-01-30T07:43:08;5.30;;;2.35;;
78664;SDS011;67981;51.022;-2.870;2024-01-30T07:45:34;5.93;;;2.42;;
78664;SDS011;67981;51.022;-2.870;2024-01-30T07:47:59;10.00;;;2.75;;
78664;SDS011;67981;51.022;-2.870;2024-01-30T07:50:25;5.07;;;3.33;;
78664;SDS011;67981;51.022;-2.870;2024-01-30T07:52:51;8.30;;;2.85;;
78664;SDS011;67981;51.022;-2.870;2024-01-30T07:55:19;6.03;;;2.20;;
78664;SDS011;67981;51.022;-2.870;2024-01-30T07:57:46;5.38;;;1.92;;
78664;SDS011;67981;51.022;-2.870;2024-01-30T08:00:12;6.68;;;2.67;;
78664;SDS011;67981;51.022;-2.870;2024-01-30T08:02:38;5.70;;;3.08;;
78664;SDS011;67981;51.022;-2.870;2024-01-30T08:05:04;7.77;;;2.33;;
78664;SDS011;67981;51.022;-2.870;2024-01-30T08:07:29;6.57;;;3.17;;
78664;SDS011;67981;51.022;-2.870;2024-01-30T08:09:55;7.85;;;2.85;;
78664;SDS011;67981;51.022;-2.870;2024-01-30T08:12:21;7.95;;;2.03;;
78664;SDS011;67981;51.022;-2.870;2024-01-30T08:14:46;8.52;;;2.67;;
78664;SDS011;67981;51.022;-2.870;2024-01-30T08:17:11;11.13;;;1.80;;
78664;SDS011;67981;51.022;-2.870;2024-01-30T08:19:37;5.93;;;2.65;;
78664;SDS011;67981;51.022;-2.870;2024-01-30T08:22:02;2.58;;;1.38;;
78664;SDS011;67981;51.022;-2.870;2024-01-30T08:24:28;3.42;;;2.10;;
78664;SDS011;67981;51.022;-2.870;2024-01-30T08:26:53;6.05;;;2.47;;
78664;SDS011;67981;51.022;-2.870;2024-01-30T08:29:18;11.35;;;2.28;;
78664;SDS011;67981;51.022;-2.870;2024-01-30T08:31:44;9.48;;;2.20;;
78664;SDS011;67981;51.022;-2.870;2024-01-30T08:34:11;8.98;;;2.10;;
78664;SDS011;67981;51.022;-2.870;2024-01-30T08:36:36;6.53;;;2.55;;
78664;SDS011;67981;51.022;-2.870;2024-01-30T08:39:02;5.00;;;2.30;;
78664;SDS011;67981;51.022;-2.870;2024-01-30T08:41:28;5.28;;;2.28;;
78664;SDS011;67981;51.022;-2.870;2024-01-30T08:43:53;6.45;;;2.60;;
78664;SDS011;67981;51.022;-2.870;2024-01-30T08:46:19;8.48;;;2.65;;
78664;SDS011;67981;51.022;-2.870;2024-01-30T08:48:45;8.48;;;2.55;;
78664;SDS011;67981;51.022;-2.870;2024-01-30T08:51:11;13.02;;;3.40;;
78664;SDS011;67981;51.022;-2.870;2024-01-30T08:53:37;8.13;;;2.75;;
78664;SDS011;67981;51.022;-2.870;2024-01-30T08:56:03;6.70;;;2.40;;
78664;SDS011;67981;51.022;-2.870;2024-01-30T08:58:29;4.53;;;2.60;;
78664;SDS011;67981;51.022;-2.870;2024-01-30T09:00:54;4.32;;;1.95;;
78664;SDS011;67981;51.022;-2.870;2024-01-30T09:03:20;5.32;;;2.63;;
78664;SDS011;67981;51.022;-2.870;2024-01-30T09:05:45;4.50;;;1.70;;
78664;SDS011;67981;51.022;-2.870;2024-01-30T09:08:10;5.40;;;2.40;;
78664;SDS011;67981;51.022;-2.870;2024-01-30T09:10:36;4.95;;;2.30;;
78664;SDS011;67981;51.022;-2.870;2024-01-30T09:13:02;3.72;;;1.67;;
78664;SDS011;67981;51.022;-2.870;2024-01-30T09:15:28;10.60;;;2.67;;
78664;SDS011;67981;51.022;-2.870;2024-01-30T09:17:53;3.05;;;2.70;;
78664;SDS011;67981;51.022;-2.870;2024-01-30T09:20:19;3.92;;;2.20;;
78664;SDS011;67981;51.022;-2.870;2024-01-30T09:22:45;5.25;;;2.45;;
78664;SDS011;67981;51.022;-2.870;2024-01-30T09:25:10;2.58;;;2.05;;
78664;SDS011;67981;51.022;-2.870;2024-01-30T09:27:36;5.05;;;3.08;;
78664;SDS011;67981;51.022;-2.870;2024-01-30T09:30:01;6.20;;;3.05;;
78664;SDS011;67981;51.022;-2.870;2024-01-30T09:32:28;11.32;;;2.47;;
78664;SDS011;67981;51.022;-2.870;2024-01-30T09:34:53;7.03;;;2.13;;
78664;SDS011;67981;51.022;-2.870;2024-01-30T09:37:18;9.75;;;2.85;;
78664;SDS011;67981;51.022;-2.870;2024-01-30T09:39:44;5.80;;;2.20;;
78664;SDS011;67981;51.022;-2.870;2024-01-30T09:42:13;4.47;;;1.80;;
78664;SDS011;67981;51.022;-2.870;2024-01-30T09:44:47;4.22;;;1.80;;
78664;SDS011;67981;51.022;-2.870;2024-01-30T09:47:16;9.16;;;2.47;;
78664;SDS011;67981;51.022;-2.870;2024-01-30T09:49:43;4.38;;;1.85;;
78664;SDS011;67981;51.022;-2.870;2024-01-30T09:52:09;5.30;;;2.53;;
78664;SDS011;67981;51.022;-2.870;2024-01-30T09:54:35;4.53;;;2.03;;
78664;SDS011;67981;51.022;-2.870;2024-01-30T09:57:03;6.13;;;1.90;;
78664;SDS011;67981;51.022;-2.870;2024-01-30T09:59:29;7.28;;;2.28;;
78664;SDS011;67981;51.022;-2.870;2024-01-30T10:01:54;6.03;;;2.10;;
78664;SDS011;67981;51.022;-2.870;2024-01-30T10:04:20;7.70;;;1.75;;
78664;SDS011;67981;51.022;-2.870;2024-01-30T10:06:46;2.78;;;1.45;;
78664;SDS011;67981;51.022;-2.870;2024-01-30T10:09:12;2.53;;;1.67;;
78664;SDS011;67981;51.022;-2.870;2024-01-30T10:11:38;5.85;;;1.83;;
78664;SDS011;67981;51.022;-2.870;2024-01-30T10:14:04;9.80;;;2.22;;
78664;SDS011;67981;51.022;-2.870;2024-01-30T10:16:29;6.45;;;2.28;;
78664;SDS011;67981;51.022;-2.870;2024-01-30T10:18:55;4.00;;;2.33;;
78664;SDS011;67981;51.022;-2.870;2024-01-30T10:21:20;7.95;;;2.92;;
78664;SDS011;67981;51.022;-2.870;2024-01-30T10:23:46;10.93;;;2.50;;
78664;SDS011;67981;51.022;-2.870;2024-01-30T10:26:11;4.30;;;2.67;;
78664;SDS011;67981;51.022;-2.870;2024-01-30T10:28:37;4.70;;;1.85;;
78664;SDS011;67981;51.022;-2.870;2024-01-30T10:31:03;5.45;;;2.78;;
78664;SDS011;67981;51.022;-2.870;2024-01-30T10:33:29;8.85;;;3.33;;
78664;SDS011;67981;51.022;-2.870;2024-01-30T10:36:00;8.68;;;2.47;;
78664;SDS011;67981;51.022;-2.870;2024-01-30T10:38:31;6.65;;;1.88;;
78664;SDS011;67981;51.022;-2.870;2024-01-30T10:40:57;3.72;;;2.22;;
78664;SDS011;67981;51.022;-2.870;2024-01-30T10:43:31;3.25;;;1.58;;
78664;SDS011;67981;51.022;-2.870;2024-01-30T10:48:43;5.05;;;1.38;;
78664;SDS011;67981;51.022;-2.870;2024-01-30T10:51:23;9.40;;;2.92;;
78664;SDS011;67981;51.022;-2.870;2024-01-30T10:53:49;5.20;;;2.63;;
78664;SDS011;67981;51.022;-2.870;2024-01-30T10:56:16;6.85;;;2.72;;
78664;SDS011;67981;51.022;-2.870;2024-01-30T10:58:42;2.50;;;1.77;;
78664;SDS011;67981;51.022;-2.870;2024-01-30T11:01:07;11.80;;;2.75;;
78664;SDS011;67981;51.022;-2.870;2024-01-30T11:03:34;5.97;;;3.55;;
78664;SDS011;67981;51.022;-2.870;2024-01-30T11:06:01;6.82;;;2.40;;
78664;SDS011;67981;51.022;-2.870;2024-01-30T11:08:27;6.72;;;3.10;;
78664;SDS011;67981;51.022;-2.870;2024-01-30T11:10:56;7.97;;;2.25;;
78664;SDS011;67981;51.022;-2.870;2024-01-30T11:13:27;4.60;;;2.40;;
78664;SDS011;67981;51.022;-2.870;2024-01-30T11:15:53;4.75;;;2.20;;
78664;SDS011;67981;51.022;-2.870;2024-01-30T11:18:25;12.57;;;2.40;;
78664;SDS011;67981;51.022;-2.870;2024-01-30T11:20:55;8.73;;;1.73;;
78664;SDS011;67981;51.022;-2.870;2024-01-30T11:23:22;3.85;;;1.63;;
78664;SDS011;67981;51.022;-2.870;2024-01-30T11:25:47;6.55;;;2.30;;
78664;SDS011;67981;51.022;-2.870;2024-01-30T11:28:16;7.40;;;1.88;;
78664;SDS011;67981;51.022;-2.870;2024-01-30T11:33:11;8.23;;;1.67;;
78664;SDS011;67981;51.022;-2.870;2024-01-30T11:35:40;6.72;;;2.20;;
78664;SDS011;67981;51.022;-2.870;2024-01-30T11:38:08;9.27;;;2.92;;
78664;SDS011;67981;51.022;-2.870;2024-01-30T11:40:35;6.40;;;2.22;;
78664;SDS011;67981;51.022;-2.870;2024-01-30T11:43:02;4.20;;;1.40;;
78664;SDS011;67981;51.022;-2.870;2024-01-30T11:45:29;3.92;;;2.22;;
78664;SDS011;67981;51.022;-2.870;2024-01-30T11:47:56;6.63;;;2.03;;
78664;SDS011;67981;51.022;-2.870;2024-01-30T11:50:22;5.03;;;1.45;;
78664;SDS011;67981;51.022;-2.870;2024-01-30T11:52:48;8.80;;;2.13;;
78664;SDS011;67981;51.022;-2.870;2024-01-30T11:55:16;4.07;;;2.10;;
78664;SDS011;67981;51.022;-2.870;2024-01-30T11:57:43;4.35;;;1.85;;
78664;SDS011;67981;51.022;-2.870;2024-01-30T12:00:15;4.72;;;1.80;;
78664;SDS011;67981;51.022;-2.870;2024-01-30T12:02:42;12.98;;;3.60;;
78664;SDS011;67981;51.022;-2.870;2024-01-30T12:05:08;5.63;;;1.77;;
78664;SDS011;67981;51.022;-2.870;2024-01-30T12:07:34;4.35;;;2.30;;
78664;SDS011;67981;51.022;-2.870;2024-01-30T12:10:00;6.15;;;1.80;;
78664;SDS011;67981;51.022;-2.870;2024-01-30T12:12:26;2.92;;;1.23;;
78664;SDS011;67981;51.022;-2.870;2024-01-30T12:14:52;5.47;;;2.20;;
78664;SDS011;67981;51.022;-2.870;2024-01-30T12:17:28;4.93;;;2.20;;
78664;SDS011;67981;51.022;-2.870;2024-01-30T12:20:40;7.57;;;1.85;;
78664;SDS011;67981;51.022;-2.870;2024-01-30T12:22:45;5.85;;;2.55;;
78664;SDS011;67981;51.022;-2.870;2024-01-30T12:25:15;7.45;;;1.75;;
78664;SDS011;67981;51.022;-2.870;2024-01-30T12:27:42;7.03;;;2.00;;
78664;SDS011;67981;51.022;-2.870;2024-01-30T12:30:09;6.00;;;2.05;;
78664;SDS011;67981;51.022;-2.870;2024-01-30T12:35:06;6.55;;;2.17;;
78664;SDS011;67981;51.022;-2.870;2024-01-30T12:37:33;2.88;;;1.60;;
78664;SDS011;67981;51.022;-2.870;2024-01-30T12:39:59;6.40;;;1.90;;
78664;SDS011;67981;51.022;-2.870;2024-01-30T12:42:25;3.60;;;1.85;;
78664;SDS011;67981;51.022;-2.870;2024-01-30T12:44:52;8.48;;;2.40;;
78664;SDS011;67981;51.022;-2.870;2024-01-30T12:47:17;5.43;;;1.60;;
78664;SDS011;67981;51.022;-2.870;2024-01-30T12:49:43;5.68;;;2.53;;
78664;SDS011;67981;51.022;-2.870;2024-01-30T12:52:09;9.55;;;2.20;;
78664;SDS011;67981;51.022;-2.870;2024-01-30T12:54:38;7.97;;;3.15;;
78664;SDS011;67981;51.022;-2.870;2024-01-30T12:57:04;5.43;;;1.65;;
78664;SDS011;67981;51.022;-2.870;2024-01-30T12:59:30;5.97;;;1.73;;
78664;SDS011;67981;51.022;-2.870;2024-01-30T13:01:55;8.15;;;1.85;;
78664;SDS011;67981;51.022;-2.870;2024-01-30T13:04:21;5.30;;;1.75;;
78664;SDS011;67981;51.022;-2.870;2024-01-30T13:06:48;3.90;;;2.13;;
78664;SDS011;67981;51.022;-2.870;2024-01-30T13:09:13;3.17;;;1.20;;
78664;SDS011;67981;51.022;-2.870;2024-01-30T13:11:39;3.40;;;1.63;;
78664;SDS011;67981;51.022;-2.870;2024-01-30T13:14:04;4.70;;;1.50;;
78664;SDS011;67981;51.022;-2.870;2024-01-30T13:16:29;7.40;;;3.28;;
78664;SDS011;67981;51.022;-2.870;2024-01-30T13:18:55;3.60;;;1.65;;
78664;SDS011;67981;51.022;-2.870;2024-01-30T13:21:20;1.77;;;1.27;;
78664;SDS011;67981;51.022;-2.870;2024-01-30T13:23:46;4.35;;;2.17;;
78664;SDS011;67981;51.022;-2.870;2024-01-30T13:26:11;4.18;;;1.85;;
78664;SDS011;67981;51.022;-2.870;2024-01-30T13:28:37;4.15;;;1.60;;
78664;SDS011;67981;51.022;-2.870;2024-01-30T13:31:03;9.43;;;2.05;;
78664;SDS011;67981;51.022;-2.870;2024-01-30T13:33:28;7.32;;;1.80;;
78664;SDS011;67981;51.022;-2.870;2024-01-30T13:35:53;4.97;;;1.88;;
78664;SDS011;67981;51.022;-2.870;2024-01-30T13:38:19;6.00;;;1.80;;
78664;SDS011;67981;51.022;-2.870;2024-01-30T13:40:44;5.03;;;2.00;;
78664;SDS011;67981;51.022;-2.870;2024-01-30T13:43:10;4.55;;;2.30;;
78664;SDS011;67981;51.022;-2.870;2024-01-30T13:45:35;7.07;;;2.00;;
78664;SDS011;67981;51.022;-2.870;2024-01-30T13:48:01;4.03;;;1.95;;
78664;SDS011;67981;51.022;-2.870;2024-01-30T13:50:28;7.13;;;2.60;;
78664;SDS011;67981;51.022;-2.870;2024-01-30T13:52:53;6.70;;;3.15;;
78664;SDS011;67981;51.022;-2.870;2024-01-30T13:55:19;3.72;;;1.15;;
78664;SDS011;67981;51.022;-2.870;2024-01-30T13:57:44;3.95;;;1.65;;
78664;SDS011;67981;51.022;-2.870;2024-01-30T14:00:11;6.20;;;1.75;;
78664;SDS011;67981;51.022;-2.870;2024-01-30T14:02:36;3.88;;;1.52;;
78664;SDS011;67981;51.022;-2.870;2024-01-30T14:05:02;2.97;;;1.60;;
78664;SDS011;67981;51.022;-2.870;2024-01-30T14:07:29;5.97;;;2.25;;
78664;SDS011;67981;51.022;-2.870;2024-01-30T14:09:54;6.22;;;1.77;;
78664;SDS011;67981;51.022;-2.870;2024-01-30T14:12:20;4.85;;;2.60;;
78664;SDS011;67981;51.022;-2.870;2024-01-30T14:14:46;4.35;;;1.77;;
78664;SDS011;67981;51.022;-2.870;2024-01-30T14:17:11;7.35;;;1.88;;
78664;SDS011;67981;51.022;-2.870;2024-01-30T14:19:36;3.03;;;1.30;;
78664;SDS011;67981;51.022;-2.870;2024-01-30T14:22:02;6.57;;;2.05;;
78664;SDS011;67981;51.022;-2.870;2024-01-30T14:24:27;6.18;;;2.25;;
78664;SDS011;67981;51.022;-2.870;2024-01-30T14:26:53;3.40;;;2.58;;
78664;SDS011;67981;51.022;-2.870;2024-01-30T14:29:18;4.90;;;1.70;;
78664;SDS011;67981;51.022;-2.870;2024-01-30T14:31:44;7.00;;;2.15;;
78664;SDS011;67981;51.022;-2.870;2024-01-30T14:34:09;2.83;;;1.48;;
78664;SDS011;67981;51.022;-2.870;2024-01-30T14:36:36;4.35;;;1.83;;